sensor_id;sensor_type;location;lat;lon;timestamp;P1;durP1;ratioP1;P2;durP2;ratioP2
15946;SDS011;8072;52.554;7.966;2023-05-07T00:00:09;26.73;;;16.40;;
15946;SDS011;8072;52.554;7.966;2023-05-07T00:02:36;26.03;;;16.20;;
15946;SDS011;8072;52.554;7.966;2023-05-07T00:05:03;23.73;;;15.47;;
15946;SDS011;8072;52.554;7.966;2023-05-07T00:07:29;25.10;;;15.70;;
15946;SDS011;8072;52.554;7.966;2023-05-07T00:09:54;26.57;;;16.77;;
15946;SDS011;8072;52.554;7.966;2023-05-07T00:12:20;28.00;;;17.23;;
15946;SDS011;8072;52.554;7.966;2023-05-07T00:14:46;26.13;;;17.13;;
15946;SDS011;8072;52.554;7.966;2023-05-07T00:17:11;29.97;;;18.07;;
15946;SDS011;8072;52.554;7.966;2023-05-07T00:19:37;26.50;;;16.60;;
15946;SDS011;8072;52.554;7.966;2023-05-07T00:22:03;28.53;;;17.50;;
15946;SDS011;8072;52.554;7.966;2023-05-07T00:24:29;29.07;;;17.87;;
15946;SDS011;8072;52.554;7.966;2023-05-07T00:26:54;30.60;;;19.37;;
15946;SDS011;8072;52.554;7.966;2023-05-07T00:29:20;26.57;;;17.77;;
15946;SDS011;8072;52.554;7.966;2023-05-07T00:31:46;31.97;;;18.73;;
15946;SDS011;8072;52.554;7.966;2023-05-07T00:34:11;34.10;;;19.03;;
15946;SDS011;8072;52.554;7.966;2023-05-07T00:36:37;34.17;;;19.80;;
15946;SDS011;8072;52.554;7.966;2023-05-07T00:39:03;39.43;;;20.03;;
15946;SDS011;8072;52.554;7.966;2023-05-07T00:41:29;35.83;;;19.97;;
15946;SDS011;8072;52.554;7.966;2023-05-07T00:43:58;41.50;;;21.63;;
15946;SDS011;8072;52.554;7.966;2023-05-07T00:46:24;33.60;;;21.70;;
15946;SDS011;8072;52.554;7.966;2023-05-07T00:48:50;34.47;;;22.00;;
15946;SDS011;8072;52.554;7.966;2023-05-07T00:51:17;35.97;;;21.67;;
15946;SDS011;8072;52.554;7.966;2023-05-07T00:53:44;36.40;;;21.67;;
15946;SDS011;8072;52.554;7.966;2023-05-07T00:56:11;36.03;;;23.17;;
15946;SDS011;8072;52.554;7.966;2023-05-07T00:58:37;38.07;;;22.57;;
15946;SDS011;8072;52.554;7.966;2023-05-07T01:01:04;35.70;;;21.57;;
15946;SDS011;8072;52.554;7.966;2023-05-07T01:03:29;41.43;;;23.77;;
15946;SDS011;8072;52.554;7.966;2023-05-07T01:05:55;36.57;;;21.70;;
15946;SDS011;8072;52.554;7.966;2023-05-07T01:08:25;36.13;;;21.67;;
15946;SDS011;8072;52.554;7.966;2023-05-07T01:10:53;34.77;;;21.87;;
15946;SDS011;8072;52.554;7.966;2023-05-07T01:13:21;35.20;;;21.80;;
15946;SDS011;8072;52.554;7.966;2023-05-07T01:15:47;35.90;;;21.67;;
15946;SDS011;8072;52.554;7.966;2023-05-07T01:18:13;33.40;;;20.40;;
15946;SDS011;8072;52.554;7.966;2023-05-07T01:20:39;31.10;;;20.87;;
15946;SDS011;8072;52.554;7.966;2023-05-07T01:23:05;36.30;;;21.23;;
15946;SDS011;8072;52.554;7.966;2023-05-07T01:25:32;32.00;;;20.80;;
15946;SDS011;8072;52.554;7.966;2023-05-07T01:27:58;34.47;;;20.90;;
15946;SDS011;8072;52.554;7.966;2023-05-07T01:30:27;35.90;;;21.07;;
15946;SDS011;8072;52.554;7.966;2023-05-07T01:33:13;32.67;;;20.17;;
15946;SDS011;8072;52.554;7.966;2023-05-07T01:35:41;34.33;;;20.73;;
15946;SDS011;8072;52.554;7.966;2023-05-07T01:38:10;33.73;;;20.67;;
15946;SDS011;8072;52.554;7.966;2023-05-07T01:40:37;31.53;;;20.37;;
15946;SDS011;8072;52.554;7.966;2023-05-07T01:43:03;34.23;;;20.43;;
15946;SDS011;8072;52.554;7.966;2023-05-07T01:45:30;34.30;;;21.03;;
15946;SDS011;8072;52.554;7.966;2023-05-07T01:47:57;29.40;;;18.60;;
15946;SDS011;8072;52.554;7.966;2023-05-07T01:50:24;31.30;;;19.13;;
15946;SDS011;8072;52.554;7.966;2023-05-07T01:52:51;32.87;;;20.07;;
15946;SDS011;8072;52.554;7.966;2023-05-07T01:55:17;28.77;;;18.17;;
15946;SDS011;8072;52.554;7.966;2023-05-07T01:57:43;32.87;;;19.63;;
15946;SDS011;8072;52.554;7.966;2023-05-07T02:00:09;31.20;;;18.83;;
15946;SDS011;8072;52.554;7.966;2023-05-07T02:02:35;28.87;;;18.40;;
15946;SDS011;8072;52.554;7.966;2023-05-07T02:05:01;29.23;;;18.47;;
15946;SDS011;8072;52.554;7.966;2023-05-07T02:07:28;32.63;;;19.37;;
15946;SDS011;8072;52.554;7.966;2023-05-07T02:09:53;34.00;;;19.10;;
15946;SDS011;8072;52.554;7.966;2023-05-07T02:12:20;28.43;;;18.87;;
15946;SDS011;8072;52.554;7.966;2023-05-07T02:14:47;29.03;;;17.53;;
15946;SDS011;8072;52.554;7.966;2023-05-07T02:17:12;31.97;;;18.23;;
15946;SDS011;8072;52.554;7.966;2023-05-07T02:19:38;27.20;;;18.17;;
15946;SDS011;8072;52.554;7.966;2023-05-07T02:22:04;29.87;;;18.07;;
15946;SDS011;8072;52.554;7.966;2023-05-07T02:24:30;29.17;;;19.13;;
15946;SDS011;8072;52.554;7.966;2023-05-07T02:26:56;28.37;;;19.00;;
15946;SDS011;8072;52.554;7.966;2023-05-07T02:29:23;28.27;;;17.30;;
15946;SDS011;8072;52.554;7.966;2023-05-07T02:31:49;28.97;;;17.80;;
15946;SDS011;8072;52.554;7.966;2023-05-07T02:34:18;30.00;;;17.73;;
15946;SDS011;8072;52.554;7.966;2023-05-07T02:36:44;27.60;;;17.60;;
15946;SDS011;8072;52.554;7.966;2023-05-07T02:39:11;27.53;;;17.50;;
15946;SDS011;8072;52.554;7.966;2023-05-07T02:41:38;29.30;;;18.07;;
15946;SDS011;8072;52.554;7.966;2023-05-07T02:44:04;32.10;;;17.87;;
15946;SDS011;8072;52.554;7.966;2023-05-07T02:46:30;31.97;;;18.50;;
15946;SDS011;8072;52.554;7.966;2023-05-07T02:48:56;28.40;;;17.90;;
15946;SDS011;8072;52.554;7.966;2023-05-07T02:51:22;34.30;;;19.53;;
15946;SDS011;8072;52.554;7.966;2023-05-07T02:53:48;29.20;;;18.67;;
15946;SDS011;8072;52.554;7.966;2023-05-07T02:56:14;29.73;;;19.70;;
15946;SDS011;8072;52.554;7.966;2023-05-07T02:58:40;30.67;;;19.03;;
15946;SDS011;8072;52.554;7.966;2023-05-07T03:01:07;30.80;;;18.93;;
15946;SDS011;8072;52.554;7.966;2023-05-07T03:03:33;31.03;;;19.23;;
15946;SDS011;8072;52.554;7.966;2023-05-07T03:06:00;28.13;;;18.57;;
15946;SDS011;8072;52.554;7.966;2023-05-07T03:08:26;29.90;;;18.93;;
15946;SDS011;8072;52.554;7.966;2023-05-07T03:10:52;32.70;;;18.57;;
15946;SDS011;8072;52.554;7.966;2023-05-07T03:13:18;30.50;;;19.80;;
15946;SDS011;8072;52.554;7.966;2023-05-07T03:15:44;34.30;;;20.33;;
15946;SDS011;8072;52.554;7.966;2023-05-07T03:18:11;32.20;;;19.53;;
15946;SDS011;8072;52.554;7.966;2023-05-07T03:20:37;34.83;;;21.57;;
15946;SDS011;8072;52.554;7.966;2023-05-07T03:23:03;36.73;;;21.73;;
15946;SDS011;8072;52.554;7.966;2023-05-07T03:25:29;37.50;;;21.80;;
15946;SDS011;8072;52.554;7.966;2023-05-07T03:27:58;36.13;;;21.43;;
15946;SDS011;8072;52.554;7.966;2023-05-07T03:30:23;37.17;;;21.90;;
15946;SDS011;8072;52.554;7.966;2023-05-07T03:32:49;39.07;;;22.67;;
15946;SDS011;8072;52.554;7.966;2023-05-07T03:35:15;37.53;;;22.27;;
15946;SDS011;8072;52.554;7.966;2023-05-07T03:37:41;37.67;;;22.63;;
15946;SDS011;8072;52.554;7.966;2023-05-07T03:40:07;36.37;;;21.63;;
15946;SDS011;8072;52.554;7.966;2023-05-07T03:42:35;39.80;;;22.73;;
15946;SDS011;8072;52.554;7.966;2023-05-07T03:45:01;37.87;;;21.63;;
15946;SDS011;8072;52.554;7.966;2023-05-07T03:47:27;38.30;;;22.83;;
15946;SDS011;8072;52.554;7.966;2023-05-07T03:49:53;42.03;;;22.93;;
15946;SDS011;8072;52.554;7.966;2023-05-07T03:52:20;35.87;;;22.37;;
15946;SDS011;8072;52.554;7.966;2023-05-07T03:54:49;38.27;;;22.63;;
15946;SDS011;8072;52.554;7.966;2023-05-07T03:57:15;38.30;;;21.70;;
15946;SDS011;8072;52.554;7.966;2023-05-07T03:59:41;37.13;;;21.20;;
15946;SDS011;8072;52.554;7.966;2023-05-07T04:02:07;40.27;;;21.57;;
15946;SDS011;8072;52.554;7.966;2023-05-07T04:04:32;37.53;;;22.47;;
15946;SDS011;8072;52.554;7.966;2023-05-07T04:06:58;41.57;;;23.47;;
15946;SDS011;8072;52.554;7.966;2023-05-07T04:09:25;41.33;;;22.50;;
15946;SDS011;8072;52.554;7.966;2023-05-07T04:11:51;45.30;;;23.93;;
15946;SDS011;8072;52.554;7.966;2023-05-07T04:14:18;39.60;;;22.77;;
15946;SDS011;8072;52.554;7.966;2023-05-07T04:16:44;47.07;;;24.30;;
15946;SDS011;8072;52.554;7.966;2023-05-07T04:19:12;45.53;;;24.07;;
15946;SDS011;8072;52.554;7.966;2023-05-07T04:21:38;43.00;;;23.80;;
15946;SDS011;8072;52.554;7.966;2023-05-07T04:24:04;47.37;;;24.40;;
15946;SDS011;8072;52.554;7.966;2023-05-07T04:26:30;40.63;;;23.40;;
15946;SDS011;8072;52.554;7.966;2023-05-07T04:28:56;47.10;;;24.20;;
15946;SDS011;8072;52.554;7.966;2023-05-07T04:31:24;46.77;;;25.33;;
15946;SDS011;8072;52.554;7.966;2023-05-07T04:33:49;46.67;;;24.00;;
15946;SDS011;8072;52.554;7.966;2023-05-07T04:36:16;45.93;;;24.87;;
15946;SDS011;8072;52.554;7.966;2023-05-07T04:38:42;46.60;;;25.07;;
15946;SDS011;8072;52.554;7.966;2023-05-07T04:41:08;46.57;;;25.07;;
15946;SDS011;8072;52.554;7.966;2023-05-07T04:43:34;46.63;;;25.43;;
15946;SDS011;8072;52.554;7.966;2023-05-07T04:46:00;43.30;;;24.40;;
15946;SDS011;8072;52.554;7.966;2023-05-07T04:48:26;47.20;;;25.00;;
15946;SDS011;8072;52.554;7.966;2023-05-07T04:50:52;44.43;;;24.33;;
15946;SDS011;8072;52.554;7.966;2023-05-07T04:53:18;45.67;;;25.20;;
15946;SDS011;8072;52.554;7.966;2023-05-07T04:55:44;43.60;;;23.83;;
15946;SDS011;8072;52.554;7.966;2023-05-07T04:58:11;44.37;;;25.03;;
15946;SDS011;8072;52.554;7.966;2023-05-07T05:00:37;44.77;;;24.63;;
15946;SDS011;8072;52.554;7.966;2023-05-07T05:03:04;43.60;;;23.87;;
15946;SDS011;8072;52.554;7.966;2023-05-07T05:05:31;45.27;;;24.33;;
15946;SDS011;8072;52.554;7.966;2023-05-07T05:07:57;46.27;;;25.03;;
15946;SDS011;8072;52.554;7.966;2023-05-07T05:10:23;44.03;;;24.03;;
15946;SDS011;8072;52.554;7.966;2023-05-07T05:12:49;43.10;;;24.10;;
15946;SDS011;8072;52.554;7.966;2023-05-07T05:15:15;45.07;;;24.07;;
15946;SDS011;8072;52.554;7.966;2023-05-07T05:17:42;40.70;;;22.23;;
15946;SDS011;8072;52.554;7.966;2023-05-07T05:20:08;41.47;;;23.60;;
15946;SDS011;8072;52.554;7.966;2023-05-07T05:22:35;45.60;;;23.80;;
15946;SDS011;8072;52.554;7.966;2023-05-07T05:25:01;43.50;;;22.90;;
15946;SDS011;8072;52.554;7.966;2023-05-07T05:27:27;45.20;;;22.57;;
15946;SDS011;8072;52.554;7.966;2023-05-07T05:29:54;39.90;;;21.33;;
15946;SDS011;8072;52.554;7.966;2023-05-07T05:32:20;38.37;;;21.30;;
15946;SDS011;8072;52.554;7.966;2023-05-07T05:34:46;45.87;;;23.27;;
15946;SDS011;8072;52.554;7.966;2023-05-07T05:37:12;38.70;;;21.70;;
15946;SDS011;8072;52.554;7.966;2023-05-07T05:39:38;44.33;;;23.37;;
15946;SDS011;8072;52.554;7.966;2023-05-07T05:42:04;39.80;;;22.10;;
15946;SDS011;8072;52.554;7.966;2023-05-07T05:44:30;40.77;;;23.03;;
15946;SDS011;8072;52.554;7.966;2023-05-07T05:46:55;40.23;;;22.80;;
15946;SDS011;8072;52.554;7.966;2023-05-07T05:49:24;40.80;;;21.70;;
15946;SDS011;8072;52.554;7.966;2023-05-07T05:51:50;39.47;;;22.67;;
15946;SDS011;8072;52.554;7.966;2023-05-07T05:54:16;38.93;;;21.50;;
15946;SDS011;8072;52.554;7.966;2023-05-07T05:56:42;40.03;;;21.27;;
15946;SDS011;8072;52.554;7.966;2023-05-07T05:59:08;38.83;;;21.47;;
15946;SDS011;8072;52.554;7.966;2023-05-07T06:01:34;36.10;;;20.80;;
15946;SDS011;8072;52.554;7.966;2023-05-07T06:03:59;36.33;;;21.47;;
15946;SDS011;8072;52.554;7.966;2023-05-07T06:06:25;37.20;;;21.53;;
15946;SDS011;8072;52.554;7.966;2023-05-07T06:08:51;36.40;;;19.10;;
15946;SDS011;8072;52.554;7.966;2023-05-07T06:11:17;35.43;;;19.50;;
15946;SDS011;8072;52.554;7.966;2023-05-07T06:13:42;33.87;;;19.50;;
15946;SDS011;8072;52.554;7.966;2023-05-07T06:16:08;34.43;;;19.97;;
15946;SDS011;8072;52.554;7.966;2023-05-07T06:18:35;33.53;;;20.43;;
15946;SDS011;8072;52.554;7.966;2023-05-07T06:21:02;32.53;;;18.53;;
15946;SDS011;8072;52.554;7.966;2023-05-07T06:23:28;34.33;;;19.73;;
15946;SDS011;8072;52.554;7.966;2023-05-07T06:25:54;33.90;;;20.27;;
15946;SDS011;8072;52.554;7.966;2023-05-07T06:28:20;32.80;;;19.13;;
15946;SDS011;8072;52.554;7.966;2023-05-07T06:30:45;33.60;;;19.77;;
15946;SDS011;8072;52.554;7.966;2023-05-07T06:33:11;30.20;;;19.30;;
15946;SDS011;8072;52.554;7.966;2023-05-07T06:35:37;35.00;;;20.53;;
15946;SDS011;8072;52.554;7.966;2023-05-07T06:38:03;31.73;;;18.90;;
15946;SDS011;8072;52.554;7.966;2023-05-07T06:40:28;30.47;;;18.60;;
15946;SDS011;8072;52.554;7.966;2023-05-07T06:42:54;32.90;;;19.20;;
15946;SDS011;8072;52.554;7.966;2023-05-07T06:45:20;34.77;;;19.37;;
15946;SDS011;8072;52.554;7.966;2023-05-07T06:47:46;29.40;;;18.13;;
15946;SDS011;8072;52.554;7.966;2023-05-07T06:50:12;33.70;;;20.43;;
15946;SDS011;8072;52.554;7.966;2023-05-07T06:52:38;31.17;;;20.37;;
15946;SDS011;8072;52.554;7.966;2023-05-07T06:55:04;32.43;;;18.90;;
15946;SDS011;8072;52.554;7.966;2023-05-07T06:57:30;33.07;;;20.17;;
15946;SDS011;8072;52.554;7.966;2023-05-07T06:59:56;32.20;;;19.47;;
15946;SDS011;8072;52.554;7.966;2023-05-07T07:02:21;30.13;;;19.03;;
15946;SDS011;8072;52.554;7.966;2023-05-07T07:04:47;31.83;;;20.37;;
15946;SDS011;8072;52.554;7.966;2023-05-07T07:07:13;29.97;;;18.47;;
15946;SDS011;8072;52.554;7.966;2023-05-07T07:09:39;30.13;;;19.37;;
15946;SDS011;8072;52.554;7.966;2023-05-07T07:12:04;28.63;;;17.77;;
15946;SDS011;8072;52.554;7.966;2023-05-07T07:14:30;31.60;;;18.80;;
15946;SDS011;8072;52.554;7.966;2023-05-07T07:16:56;29.77;;;18.67;;
15946;SDS011;8072;52.554;7.966;2023-05-07T07:19:22;29.70;;;19.00;;
15946;SDS011;8072;52.554;7.966;2023-05-07T07:21:47;31.40;;;18.70;;
15946;SDS011;8072;52.554;7.966;2023-05-07T07:24:13;30.60;;;19.40;;
15946;SDS011;8072;52.554;7.966;2023-05-07T07:26:46;28.60;;;19.20;;
15946;SDS011;8072;52.554;7.966;2023-05-07T07:29:12;30.37;;;18.23;;
15946;SDS011;8072;52.554;7.966;2023-05-07T07:31:38;28.73;;;16.87;;
15946;SDS011;8072;52.554;7.966;2023-05-07T07:34:04;30.07;;;18.43;;
15946;SDS011;8072;52.554;7.966;2023-05-07T07:36:29;28.93;;;18.27;;
15946;SDS011;8072;52.554;7.966;2023-05-07T07:38:55;29.33;;;17.67;;
15946;SDS011;8072;52.554;7.966;2023-05-07T07:41:21;29.83;;;18.67;;
15946;SDS011;8072;52.554;7.966;2023-05-07T07:43:46;29.53;;;18.50;;
15946;SDS011;8072;52.554;7.966;2023-05-07T07:46:12;29.90;;;18.70;;
15946;SDS011;8072;52.554;7.966;2023-05-07T07:48:38;27.63;;;18.17;;
15946;SDS011;8072;52.554;7.966;2023-05-07T07:51:04;24.90;;;18.00;;
15946;SDS011;8072;52.554;7.966;2023-05-07T07:53:29;27.83;;;18.57;;
15946;SDS011;8072;52.554;7.966;2023-05-07T07:55:55;27.60;;;18.13;;
15946;SDS011;8072;52.554;7.966;2023-05-07T07:58:21;29.07;;;17.97;;
15946;SDS011;8072;52.554;7.966;2023-05-07T08:00:47;27.60;;;18.17;;
15946;SDS011;8072;52.554;7.966;2023-05-07T08:03:13;28.77;;;18.27;;
15946;SDS011;8072;52.554;7.966;2023-05-07T08:05:41;29.37;;;18.13;;
15946;SDS011;8072;52.554;7.966;2023-05-07T08:08:07;26.63;;;17.80;;
15946;SDS011;8072;52.554;7.966;2023-05-07T08:10:33;29.37;;;18.80;;
15946;SDS011;8072;52.554;7.966;2023-05-07T08:12:59;28.43;;;17.90;;
15946;SDS011;8072;52.554;7.966;2023-05-07T08:15:26;28.53;;;17.93;;
15946;SDS011;8072;52.554;7.966;2023-05-07T08:17:52;27.67;;;18.87;;
15946;SDS011;8072;52.554;7.966;2023-05-07T08:20:17;28.80;;;18.10;;
15946;SDS011;8072;52.554;7.966;2023-05-07T08:22:43;31.37;;;18.70;;
15946;SDS011;8072;52.554;7.966;2023-05-07T08:25:09;28.13;;;18.20;;
15946;SDS011;8072;52.554;7.966;2023-05-07T08:27:35;28.57;;;17.73;;
15946;SDS011;8072;52.554;7.966;2023-05-07T08:30:00;27.53;;;18.63;;
15946;SDS011;8072;52.554;7.966;2023-05-07T08:32:26;28.33;;;18.00;;
15946;SDS011;8072;52.554;7.966;2023-05-07T08:34:52;29.20;;;19.30;;
15946;SDS011;8072;52.554;7.966;2023-05-07T08:37:18;27.37;;;17.80;;
15946;SDS011;8072;52.554;7.966;2023-05-07T08:39:44;27.33;;;18.27;;
15946;SDS011;8072;52.554;7.966;2023-05-07T08:42:10;26.93;;;18.17;;
15946;SDS011;8072;52.554;7.966;2023-05-07T08:44:38;27.13;;;17.90;;
15946;SDS011;8072;52.554;7.966;2023-05-07T08:47:06;26.90;;;17.43;;
15946;SDS011;8072;52.554;7.966;2023-05-07T08:49:32;27.37;;;18.00;;
15946;SDS011;8072;52.554;7.966;2023-05-07T08:51:59;27.40;;;17.37;;
15946;SDS011;8072;52.554;7.966;2023-05-07T08:54:25;28.00;;;18.37;;
15946;SDS011;8072;52.554;7.966;2023-05-07T08:56:52;30.90;;;19.20;;
15946;SDS011;8072;52.554;7.966;2023-05-07T08:59:18;45.27;;;27.27;;
15946;SDS011;8072;52.554;7.966;2023-05-07T09:01:44;28.87;;;19.50;;
15946;SDS011;8072;52.554;7.966;2023-05-07T09:04:11;40.47;;;23.97;;
15946;SDS011;8072;52.554;7.966;2023-05-07T09:06:38;27.93;;;18.50;;
15946;SDS011;8072;52.554;7.966;2023-05-07T09:09:07;25.33;;;17.47;;
15946;SDS011;8072;52.554;7.966;2023-05-07T09:11:33;25.67;;;17.63;;
15946;SDS011;8072;52.554;7.966;2023-05-07T09:13:58;38.30;;;25.23;;
15946;SDS011;8072;52.554;7.966;2023-05-07T09:16:26;37.37;;;22.03;;
15946;SDS011;8072;52.554;7.966;2023-05-07T09:18:54;33.37;;;21.83;;
15946;SDS011;8072;52.554;7.966;2023-05-07T09:21:20;21.97;;;15.97;;
15946;SDS011;8072;52.554;7.966;2023-05-07T09:23:48;23.67;;;16.10;;
15946;SDS011;8072;52.554;7.966;2023-05-07T09:26:18;23.40;;;16.40;;
15946;SDS011;8072;52.554;7.966;2023-05-07T09:28:46;28.23;;;19.23;;
15946;SDS011;8072;52.554;7.966;2023-05-07T09:31:12;24.63;;;16.73;;
15946;SDS011;8072;52.554;7.966;2023-05-07T09:33:38;23.67;;;18.17;;
15946;SDS011;8072;52.554;7.966;2023-05-07T09:36:05;23.27;;;15.40;;
15946;SDS011;8072;52.554;7.966;2023-05-07T09:38:32;21.80;;;15.70;;
15946;SDS011;8072;52.554;7.966;2023-05-07T09:41:02;22.93;;;15.77;;
15946;SDS011;8072;52.554;7.966;2023-05-07T09:43:36;19.73;;;15.23;;
15946;SDS011;8072;52.554;7.966;2023-05-07T09:46:03;21.63;;;15.03;;
15946;SDS011;8072;52.554;7.966;2023-05-07T09:48:37;20.47;;;14.63;;
15946;SDS011;8072;52.554;7.966;2023-05-07T09:51:06;20.20;;;15.33;;
15946;SDS011;8072;52.554;7.966;2023-05-07T09:54:15;20.77;;;14.93;;
15946;SDS011;8072;52.554;7.966;2023-05-07T09:56:44;20.10;;;14.47;;
15946;SDS011;8072;52.554;7.966;2023-05-07T09:59:11;19.90;;;15.00;;
15946;SDS011;8072;52.554;7.966;2023-05-07T10:01:39;18.47;;;14.23;;
15946;SDS011;8072;52.554;7.966;2023-05-07T10:04:07;20.10;;;15.33;;
15946;SDS011;8072;52.554;7.966;2023-05-07T10:06:35;18.50;;;13.97;;
15946;SDS011;8072;52.554;7.966;2023-05-07T10:09:03;18.97;;;14.10;;
15946;SDS011;8072;52.554;7.966;2023-05-07T10:11:34;17.00;;;13.60;;
15946;SDS011;8072;52.554;7.966;2023-05-07T10:14:03;15.47;;;12.70;;
15946;SDS011;8072;52.554;7.966;2023-05-07T10:16:34;17.07;;;12.63;;
15946;SDS011;8072;52.554;7.966;2023-05-07T10:19:04;19.47;;;13.27;;
15946;SDS011;8072;52.554;7.966;2023-05-07T10:21:31;15.97;;;12.07;;
15946;SDS011;8072;52.554;7.966;2023-05-07T10:24:05;15.67;;;12.40;;
15946;SDS011;8072;52.554;7.966;2023-05-07T10:26:38;15.47;;;12.27;;
15946;SDS011;8072;52.554;7.966;2023-05-07T10:29:12;14.33;;;11.33;;
15946;SDS011;8072;52.554;7.966;2023-05-07T10:34:32;15.53;;;11.10;;
15946;SDS011;8072;52.554;7.966;2023-05-07T10:37:02;15.40;;;11.23;;
15946;SDS011;8072;52.554;7.966;2023-05-07T10:39:29;15.33;;;11.93;;
15946;SDS011;8072;52.554;7.966;2023-05-07T10:41:55;13.37;;;10.67;;
15946;SDS011;8072;52.554;7.966;2023-05-07T10:44:25;15.13;;;11.10;;
15946;SDS011;8072;52.554;7.966;2023-05-07T10:47:27;14.90;;;11.17;;
15946;SDS011;8072;52.554;7.966;2023-05-07T10:52:13;13.37;;;9.80;;
15946;SDS011;8072;52.554;7.966;2023-05-07T10:54:41;14.03;;;10.90;;
15946;SDS011;8072;52.554;7.966;2023-05-07T11:00:01;12.17;;;9.60;;
15946;SDS011;8072;52.554;7.966;2023-05-07T11:05:24;13.00;;;9.97;;
15946;SDS011;8072;52.554;7.966;2023-05-07T11:07:54;14.73;;;9.70;;
15946;SDS011;8072;52.554;7.966;2023-05-07T11:10:20;15.80;;;10.27;;
15946;SDS011;8072;52.554;7.966;2023-05-07T11:12:47;14.33;;;9.97;;
15946;SDS011;8072;52.554;7.966;2023-05-07T11:15:15;13.83;;;9.80;;
15946;SDS011;8072;52.554;7.966;2023-05-07T11:17:58;12.70;;;8.90;;
15946;SDS011;8072;52.554;7.966;2023-05-07T11:25:59;12.03;;;8.97;;
15946;SDS011;8072;52.554;7.966;2023-05-07T11:28:27;15.00;;;9.27;;
15946;SDS011;8072;52.554;7.966;2023-05-07T11:30:53;13.67;;;9.63;;
15946;SDS011;8072;52.554;7.966;2023-05-07T11:33:19;13.27;;;9.43;;
15946;SDS011;8072;52.554;7.966;2023-05-07T11:35:47;10.63;;;9.20;;
15946;SDS011;8072;52.554;7.966;2023-05-07T11:38:13;14.67;;;9.87;;
15946;SDS011;8072;52.554;7.966;2023-05-07T11:40:58;14.43;;;10.53;;
15946;SDS011;8072;52.554;7.966;2023-05-07T11:43:29;14.63;;;10.13;;
15946;SDS011;8072;52.554;7.966;2023-05-07T11:46:10;12.67;;;10.23;;
15946;SDS011;8072;52.554;7.966;2023-05-07T11:48:37;12.47;;;9.53;;
15946;SDS011;8072;52.554;7.966;2023-05-07T11:51:05;11.57;;;9.03;;
15946;SDS011;8072;52.554;7.966;2023-05-07T11:53:38;13.17;;;9.90;;
15946;SDS011;8072;52.554;7.966;2023-05-07T11:56:12;11.57;;;9.17;;
15946;SDS011;8072;52.554;7.966;2023-05-07T11:58:39;12.03;;;9.00;;
15946;SDS011;8072;52.554;7.966;2023-05-07T12:01:09;13.13;;;10.40;;
15946;SDS011;8072;52.554;7.966;2023-05-07T12:03:36;13.90;;;9.10;;
15946;SDS011;8072;52.554;7.966;2023-05-07T12:06:05;13.33;;;9.73;;
15946;SDS011;8072;52.554;7.966;2023-05-07T12:08:31;13.83;;;9.87;;
15946;SDS011;8072;52.554;7.966;2023-05-07T12:10:58;11.77;;;8.70;;
15946;SDS011;8072;52.554;7.966;2023-05-07T12:13:25;11.87;;;9.67;;
15946;SDS011;8072;52.554;7.966;2023-05-07T12:16:00;13.77;;;11.10;;
15946;SDS011;8072;52.554;7.966;2023-05-07T12:18:29;13.87;;;10.00;;
15946;SDS011;8072;52.554;7.966;2023-05-07T12:20:56;12.80;;;10.13;;
15946;SDS011;8072;52.554;7.966;2023-05-07T12:23:22;13.37;;;10.47;;
15946;SDS011;8072;52.554;7.966;2023-05-07T12:25:48;16.03;;;10.27;;
15946;SDS011;8072;52.554;7.966;2023-05-07T12:28:18;14.67;;;10.87;;
15946;SDS011;8072;52.554;7.966;2023-05-07T12:30:46;15.70;;;12.03;;
15946;SDS011;8072;52.554;7.966;2023-05-07T12:33:23;14.50;;;11.43;;
15946;SDS011;8072;52.554;7.966;2023-05-07T12:35:50;15.23;;;11.63;;
15946;SDS011;8072;52.554;7.966;2023-05-07T12:38:16;14.37;;;11.67;;
15946;SDS011;8072;52.554;7.966;2023-05-07T12:40:43;16.90;;;12.27;;
15946;SDS011;8072;52.554;7.966;2023-05-07T12:43:19;16.13;;;13.00;;
15946;SDS011;8072;52.554;7.966;2023-05-07T12:45:54;16.20;;;13.20;;
15946;SDS011;8072;52.554;7.966;2023-05-07T12:48:22;17.80;;;13.83;;
15946;SDS011;8072;52.554;7.966;2023-05-07T12:50:59;16.37;;;13.27;;
15946;SDS011;8072;52.554;7.966;2023-05-07T12:53:26;20.27;;;14.03;;
15946;SDS011;8072;52.554;7.966;2023-05-07T12:55:54;18.20;;;14.47;;
15946;SDS011;8072;52.554;7.966;2023-05-07T13:00:50;16.13;;;13.20;;
15946;SDS011;8072;52.554;7.966;2023-05-07T13:03:27;18.27;;;13.47;;
15946;SDS011;8072;52.554;7.966;2023-05-07T13:05:55;15.53;;;12.83;;
15946;SDS011;8072;52.554;7.966;2023-05-07T13:10:59;15.07;;;12.17;;
15946;SDS011;8072;52.554;7.966;2023-05-07T13:13:28;15.13;;;12.50;;
15946;SDS011;8072;52.554;7.966;2023-05-07T13:15:55;15.47;;;12.27;;
15946;SDS011;8072;52.554;7.966;2023-05-07T13:18:21;13.47;;;11.47;;
15946;SDS011;8072;52.554;7.966;2023-05-07T13:20:47;13.23;;;10.30;;
15946;SDS011;8072;52.554;7.966;2023-05-07T13:23:12;12.07;;;10.43;;
15946;SDS011;8072;52.554;7.966;2023-05-07T13:25:38;13.90;;;10.70;;
15946;SDS011;8072;52.554;7.966;2023-05-07T13:28:04;13.80;;;10.17;;
15946;SDS011;8072;52.554;7.966;2023-05-07T13:30:30;12.13;;;9.97;;
15946;SDS011;8072;52.554;7.966;2023-05-07T13:32:56;14.10;;;10.63;;
15946;SDS011;8072;52.554;7.966;2023-05-07T13:35:22;13.97;;;10.87;;
15946;SDS011;8072;52.554;7.966;2023-05-07T13:37:47;14.23;;;11.43;;
15946;SDS011;8072;52.554;7.966;2023-05-07T13:40:14;13.80;;;10.97;;
15946;SDS011;8072;52.554;7.966;2023-05-07T13:42:40;14.20;;;10.90;;
15946;SDS011;8072;52.554;7.966;2023-05-07T13:45:06;12.30;;;10.07;;
15946;SDS011;8072;52.554;7.966;2023-05-07T13:47:34;12.53;;;9.97;;
15946;SDS011;8072;52.554;7.966;2023-05-07T13:50:00;13.53;;;10.27;;
15946;SDS011;8072;52.554;7.966;2023-05-07T13:52:25;13.70;;;10.13;;
15946;SDS011;8072;52.554;7.966;2023-05-07T13:54:51;15.33;;;10.23;;
15946;SDS011;8072;52.554;7.966;2023-05-07T13:57:17;12.43;;;10.63;;
15946;SDS011;8072;52.554;7.966;2023-05-07T13:59:43;13.77;;;11.30;;
15946;SDS011;8072;52.554;7.966;2023-05-07T14:02:09;14.47;;;11.53;;
15946;SDS011;8072;52.554;7.966;2023-05-07T14:04:35;12.60;;;10.07;;
15946;SDS011;8072;52.554;7.966;2023-05-07T14:07:02;12.20;;;9.57;;
15946;SDS011;8072;52.554;7.966;2023-05-07T14:09:28;10.87;;;9.33;;
15946;SDS011;8072;52.554;7.966;2023-05-07T14:11:55;13.03;;;10.60;;
15946;SDS011;8072;52.554;7.966;2023-05-07T14:14:20;12.83;;;10.47;;
15946;SDS011;8072;52.554;7.966;2023-05-07T14:16:46;12.47;;;10.23;;
15946;SDS011;8072;52.554;7.966;2023-05-07T14:19:12;13.30;;;9.70;;
15946;SDS011;8072;52.554;7.966;2023-05-07T14:21:38;13.00;;;9.85;;
15946;SDS011;8072;52.554;7.966;2023-05-07T14:24:05;11.60;;;10.40;;
15946;SDS011;8072;52.554;7.966;2023-05-07T14:26:32;15.33;;;11.30;;
15946;SDS011;8072;52.554;7.966;2023-05-07T14:28:58;17.45;;;11.85;;
15946;SDS011;8072;52.554;7.966;2023-05-07T14:31:24;14.70;;;12.30;;
15946;SDS011;8072;52.554;7.966;2023-05-07T14:33:50;14.93;;;13.03;;
15946;SDS011;8072;52.554;7.966;2023-05-07T14:36:17;14.23;;;12.33;;
15946;SDS011;8072;52.554;7.966;2023-05-07T14:38:45;13.77;;;11.47;;
15946;SDS011;8072;52.554;7.966;2023-05-07T14:41:11;13.40;;;11.50;;
15946;SDS011;8072;52.554;7.966;2023-05-07T14:43:37;16.53;;;11.90;;
15946;SDS011;8072;52.554;7.966;2023-05-07T14:46:03;16.87;;;12.40;;
15946;SDS011;8072;52.554;7.966;2023-05-07T14:48:29;15.60;;;11.13;;
15946;SDS011;8072;52.554;7.966;2023-05-07T14:50:54;13.20;;;11.60;;
15946;SDS011;8072;52.554;7.966;2023-05-07T14:53:22;13.67;;;11.97;;
15946;SDS011;8072;52.554;7.966;2023-05-07T14:55:48;14.47;;;10.93;;